Time;durP1;ratioP1;P1;durP2;ratioP2;P2;SDS_P1;SDS_P2;PMS_P1;PMS_P2;Temp;Humidity;BMP_temperature;BMP_pressure;BME280_temperature;BME280_humidity;BME280_pressure;Samples;Min_cycle;Max_cycle;Signal;HPM_P1;HPM_P2
2023/12/02 00:00:40;;;;;;;1.85;1.75;;;;;;;-3.05;91.34;96343.63;5056643;28;20045;-74
2023/12/02 00:03:08;;;;;;;1.80;1.77;;;;;;;-3.02;91.55;96352.97;5055001;28;20052;-72
2023/12/02 00:05:35;;;;;;;1.92;1.83;;;;;;;-3.09;91.80;96339.66;5057675;28;20048;-72
2023/12/02 00:08:03;;;;;;;1.20;1.20;;;;;;;-3.11;91.56;96356.41;5063863;28;20118;-72
2023/12/02 00:10:31;;;;;;;1.80;1.80;;;;;;;-3.04;91.54;96365.34;5057319;28;20044;-72
2023/12/02 00:12:59;;;;;;;0.82;0.82;;;;;;;-3.08;91.59;96372.63;5044840;28;20533;-72
2023/12/02 00:15:26;;;;;;;1.73;1.73;;;;;;;-3.10;92.16;96360.66;5057505;28;20044;-72
2023/12/02 00:17:55;;;;;;;2.28;2.17;;;;;;;-3.05;92.18;96346.25;5052191;28;20045;-73
2023/12/02 00:20:23;;;;;;;1.60;1.60;;;;;;;-2.99;91.91;96342.22;5055919;28;20087;-72
2023/12/02 00:22:50;;;;;;;2.17;2.08;;;;;;;-2.98;91.53;96346.50;5057697;28;20386;-72
2023/12/02 00:25:18;;;;;;;1.73;1.73;;;;;;;-2.95;91.86;96343.59;5058412;28;20059;-72
2023/12/02 00:27:46;;;;;;;1.60;1.50;;;;;;;-2.97;91.25;96335.09;5059307;28;20489;-73
2023/12/02 00:30:14;;;;;;;1.58;1.58;;;;;;;-2.94;90.82;96334.81;5049167;28;20055;-73
2023/12/02 00:32:41;;;;;;;1.35;1.25;;;;;;;-3.04;91.68;96331.41;5052578;28;20048;-72
2023/12/02 00:35:09;;;;;;;1.25;1.25;;;;;;;-3.21;92.36;96347.78;5053316;28;20052;-73
2023/12/02 00:37:37;;;;;;;1.33;1.33;;;;;;;-3.14;92.11;96343.66;5057441;28;20052;-72
2023/12/02 00:40:06;;;;;;;1.73;1.63;;;;;;;-3.13;92.11;96351.34;5033985;28;20052;-73
2023/12/02 00:42:34;;;;;;;1.33;1.33;;;;;;;-3.12;91.51;96352.19;5061588;28;20036;-73
2023/12/02 00:45:01;;;;;;;1.83;1.80;;;;;;;-3.10;91.81;96348.44;5055417;28;20055;-72
2023/12/02 00:47:29;;;;;;;1.40;1.30;;;;;;;-3.11;91.55;96328.53;5056040;28;20051;-72
2023/12/02 00:49:59;;;;;;;1.17;1.17;;;;;;;-3.14;91.24;96343.66;5057730;28;20052;-72
2023/12/02 00:52:28;;;;;;;1.67;1.67;;;;;;;-3.14;91.04;96351.50;5051106;28;20043;-73
2023/12/02 00:54:56;;;;;;;1.35;1.35;;;;;;;-3.22;91.38;96356.59;5041730;28;20063;-73
2023/12/02 00:57:24;;;;;;;1.50;1.50;;;;;;;-3.26;91.86;96369.09;5053062;28;20051;-73
2023/12/02 00:59:52;;;;;;;1.45;1.45;;;;;;;-3.19;91.97;96369.34;5057440;28;20557;-73
2023/12/02 01:02:19;;;;;;;1.55;1.55;;;;;;;-3.13;91.83;96376.63;5057395;28;20497;-72
2023/12/02 01:04:48;;;;;;;1.77;1.67;;;;;;;-3.15;91.34;96363.72;5051468;28;20445;-72
2023/12/02 01:07:15;;;;;;;1.63;1.60;;;;;;;-3.17;91.35;96354.38;5045146;28;20098;-72
2023/12/02 01:09:44;;;;;;;1.77;1.67;;;;;;;-3.15;91.42;96355.88;5040673;28;20514;-72
2023/12/02 01:12:12;;;;;;;1.40;1.40;;;;;;;-3.19;91.48;96357.13;5048798;28;20509;-72
2023/12/02 01:14:40;;;;;;;1.55;1.55;;;;;;;-3.20;91.52;96365.09;5059342;28;20050;-72
2023/12/02 01:17:08;;;;;;;1.45;1.45;;;;;;;-3.28;91.09;96364.97;5058034;28;20127;-72
2023/12/02 01:19:35;;;;;;;1.67;1.67;;;;;;;-3.39;91.92;96371.97;5064084;28;20124;-73
2023/12/02 01:22:03;;;;;;;1.45;1.45;;;;;;;-3.29;91.74;96364.16;5060585;28;20063;-73
2023/12/02 01:24:31;;;;;;;1.60;1.60;;;;;;;-3.32;91.81;96359.19;5070096;28;20050;-73
2023/12/02 01:27:00;;;;;;;1.30;1.30;;;;;;;-3.28;92.18;96364.97;5052076;28;20045;-73
2023/12/02 01:29:27;;;;;;;1.60;1.60;;;;;;;-3.19;91.93;96364.13;5029944;28;20045;-73
2023/12/02 01:31:55;;;;;;;1.50;1.50;;;;;;;-3.24;91.84;96342.88;5058661;28;20051;-72
2023/12/02 01:34:23;;;;;;;0.98;0.98;;;;;;;-3.34;91.83;96337.69;5050736;28;20331;-72
2023/12/02 01:36:50;;;;;;;1.55;1.55;;;;;;;-3.23;91.88;96344.50;5041463;28;20044;-72
2023/12/02 01:39:18;;;;;;;1.27;1.27;;;;;;;-3.30;91.37;96336.41;5054087;28;20567;-74
2023/12/02 01:41:46;;;;;;;1.40;1.40;;;;;;;-3.24;91.66;96342.88;5059306;28;20094;-75
2023/12/02 01:44:14;;;;;;;1.50;1.50;;;;;;;-3.49;92.04;96337.28;5055300;28;20048;-74
2023/12/02 01:46:42;;;;;;;1.40;1.40;;;;;;;-3.43;92.25;96336.72;5036571;28;20051;-73
2023/12/02 01:49:10;;;;;;;1.35;1.35;;;;;;;-3.30;92.10;96338.19;5054765;28;20045;-73
2023/12/02 01:51:38;;;;;;;1.50;1.50;;;;;;;-3.29;91.54;96330.25;5052737;28;20489;-73
2023/12/02 01:54:07;;;;;;;1.42;1.42;;;;;;;-3.26;91.24;96347.41;5058505;28;20067;-74
2023/12/02 01:56:34;;;;;;;1.75;1.65;;;;;;;-3.24;90.93;96350.69;5059231;28;20044;-74
2023/12/02 01:59:06;;;;;;;1.35;1.35;;;;;;;-3.22;91.00;96354.81;5039859;28;20048;-72
2023/12/02 02:01:35;;;;;;;1.50;1.50;;;;;;;-3.18;91.29;96363.97;5048958;28;20049;-74
2023/12/02 02:04:03;;;;;;;1.33;1.33;;;;;;;-3.13;90.65;96350.53;5054696;28;20142;-72
2023/12/02 02:06:31;;;;;;;1.85;1.77;;;;;;;-3.10;90.49;96364.09;5057328;28;20103;-72
2023/12/02 02:08:58;;;;;;;1.63;1.52;;;;;;;-3.05;90.96;96369.72;5049018;28;20148;-74
2023/12/02 02:11:26;;;;;;;1.15;1.15;;;;;;;-3.02;90.65;96376.47;5056143;28;20098;-72
2023/12/02 02:13:54;;;;;;;0.70;0.70;;;;;;;-3.08;90.00;96377.00;5042572;28;20618;-72
2023/12/02 02:16:21;;;;;;;0.50;0.50;;;;;;;-3.09;90.05;96381.41;5050730;28;20479;-74
2023/12/02 02:18:50;;;;;;;1.45;1.45;;;;;;;-3.10;89.98;96379.75;5068268;22;20061;-71
2023/12/02 02:21:21;;;;;;;1.45;1.45;;;;;;;-3.16;90.17;96384.72;5048788;28;20045;-70
2023/12/02 02:23:48;;;;;;;0.98;0.98;;;;;;;-3.23;89.91;96401.91;5048588;28;20037;-70
2023/12/02 02:26:16;;;;;;;1.73;1.65;;;;;;;-3.30;90.35;96385.97;5029494;28;20071;-70
2023/12/02 02:28:43;;;;;;;1.30;1.30;;;;;;;-3.22;90.55;96387.91;5044396;28;20033;-70
2023/12/02 02:31:11;;;;;;;1.00;1.00;;;;;;;-3.19;90.22;96375.38;5046103;28;20086;-70
2023/12/02 02:33:39;;;;;;;1.35;1.35;;;;;;;-3.21;90.00;96379.09;5047996;28;20052;-71
2023/12/02 02:36:07;;;;;;;1.55;1.55;;;;;;;-3.22;90.10;96378.28;5047397;28;20057;-69
2023/12/02 02:38:36;;;;;;;1.55;1.55;;;;;;;-3.32;90.15;96382.66;5046752;28;20068;-69
2023/12/02 02:41:05;;;;;;;1.02;1.02;;;;;;;-3.23;90.24;96374.03;5044652;28;20052;-69
2023/12/02 02:43:32;;;;;;;1.35;1.35;;;;;;;-3.32;89.89;96367.84;5045634;28;20037;-70
2023/12/02 02:46:00;;;;;;;0.70;0.70;;;;;;;-3.42;90.40;96372.25;5047691;28;20406;-69
2023/12/02 02:48:27;;;;;;;1.02;1.02;;;;;;;-3.36;90.55;96374.31;5046161;28;20053;-69
2023/12/02 02:50:55;;;;;;;1.58;1.58;;;;;;;-3.26;90.42;96374.31;5046083;28;20611;-69
2023/12/02 02:53:22;;;;;;;1.45;1.45;;;;;;;-3.29;90.16;96358.09;5043512;28;20046;-69
2023/12/02 02:55:52;;;;;;;1.50;1.50;;;;;;;-3.25;90.26;96356.88;5029338;28;20102;-69
2023/12/02 02:58:19;;;;;;;1.77;1.77;;;;;;;-3.26;89.67;96361.25;5045451;28;20496;-69
2023/12/02 03:00:47;;;;;;;1.25;1.25;;;;;;;-3.32;89.69;96359.19;5046306;28;20041;-69
2023/12/02 03:03:14;;;;;;;1.40;1.40;;;;;;;-3.42;89.62;96359.22;5044945;28;20048;-69
2023/12/02 03:05:42;;;;;;;0.50;0.50;;;;;;;-3.40;89.42;96349.47;5045975;28;20416;-69
2023/12/02 03:08:09;;;;;;;1.10;1.10;;;;;;;-3.32;89.82;96353.97;5044694;28;20044;-70
2023/12/02 03:10:36;;;;;;;1.15;1.15;;;;;;;-3.32;89.22;96348.75;5047396;28;20045;-71
2023/12/02 03:13:05;;;;;;;1.25;1.25;;;;;;;-3.44;89.59;96355.13;5046506;28;20037;-70
2023/12/02 03:15:33;;;;;;;1.27;1.27;;;;;;;-3.38;89.81;96368.41;5046935;28;20134;-69
2023/12/02 03:18:01;;;;;;;1.50;1.50;;;;;;;-3.44;89.62;96362.94;5047885;28;20502;-70
2023/12/02 03:20:29;;;;;;;1.30;1.30;;;;;;;-3.45;90.01;96346.47;5049491;28;20049;-70
2023/12/02 03:22:56;;;;;;;1.35;1.35;;;;;;;-3.42;89.64;96337.53;5046668;28;20052;-70
2023/12/02 03:25:25;;;;;;;1.52;1.52;;;;;;;-3.32;89.93;96341.75;5047948;28;20413;-70
2023/12/02 03:27:53;;;;;;;1.48;1.48;;;;;;;-3.27;90.32;96343.97;5045062;28;20055;-69
2023/12/02 03:30:22;;;;;;;1.20;1.20;;;;;;;-3.30;89.36;96348.63;5046032;28;20052;-70
2023/12/02 03:32:49;;;;;;;1.23;1.23;;;;;;;-3.24;89.20;96355.91;5045378;28;20091;-70
2023/12/02 03:35:17;;;;;;;1.25;1.25;;;;;;;-3.21;89.45;96350.38;5042212;28;20049;-70
2023/12/02 03:37:45;;;;;;;0.70;0.70;;;;;;;-3.15;89.34;96355.06;5047563;28;20468;-70
2023/12/02 03:40:13;;;;;;;1.20;1.20;;;;;;;-3.31;88.99;96345.19;5041473;28;20048;-69
2023/12/02 03:42:40;;;;;;;1.10;1.10;;;;;;;-3.26;89.48;96350.00;5044827;28;20037;-69
2023/12/02 03:45:09;;;;;;;1.05;1.05;;;;;;;-3.22;88.98;96352.22;5046982;28;20218;-70
2023/12/02 03:47:38;;;;;;;1.30;1.30;;;;;;;-3.27;89.07;96353.56;5043630;28;20540;-69
2023/12/02 03:50:07;;;;;;;0.60;0.60;;;;;;;-3.35;88.90;96355.09;5045854;28;20472;-70
2023/12/02 03:52:36;;;;;;;1.10;1.10;;;;;;;-3.39;89.05;96351.13;5046111;28;20080;-70
2023/12/02 03:55:04;;;;;;;1.35;1.35;;;;;;;-3.36;88.95;96358.66;5043200;28;20569;-70
2023/12/02 03:57:32;;;;;;;1.58;1.58;;;;;;;-3.35;88.85;96357.72;5046072;28;20064;-69
2023/12/02 04:00:00;;;;;;;1.20;1.20;;;;;;;-3.33;89.11;96342.75;5047165;28;20049;-70
2023/12/02 04:02:27;;;;;;;1.35;1.35;;;;;;;-3.35;88.85;96351.66;5044493;28;20099;-70
2023/12/02 04:04:56;;;;;;;1.48;1.48;;;;;;;-3.34;88.74;96356.75;5045216;28;20055;-69
2023/12/02 04:07:24;;;;;;;1.58;1.58;;;;;;;-3.46;88.96;96363.06;5046592;28;20057;-70
2023/12/02 04:09:52;;;;;;;1.13;1.13;;;;;;;-3.43;89.22;96357.59;5045916;28;20060;-71
2023/12/02 04:12:20;;;;;;;1.00;1.00;;;;;;;-3.35;89.00;96357.72;5045303;28;20405;-71
2023/12/02 04:14:47;;;;;;;1.38;1.38;;;;;;;-3.31;88.81;96355.63;5044810;28;20068;-70
2023/12/02 04:17:15;;;;;;;1.80;1.80;;;;;;;-3.41;88.35;96358.25;5044720;28;20052;-71
2023/12/02 04:19:43;;;;;;;1.45;1.45;;;;;;;-3.37;88.35;96364.84;5042178;28;20044;-71
2023/12/02 04:22:12;;;;;;;1.00;1.00;;;;;;;-3.46;88.53;96364.84;5037919;28;20051;-71
2023/12/02 04:24:40;;;;;;;1.17;1.17;;;;;;;-3.65;88.74;96362.28;5045513;28;20112;-70
2023/12/02 04:27:08;;;;;;;1.70;1.70;;;;;;;-3.74;88.84;96366.53;5045505;28;20037;-71
2023/12/02 04:29:36;;;;;;;1.48;1.48;;;;;;;-3.65;88.94;96364.88;5046706;28;20045;-71
2023/12/02 04:32:04;;;;;;;1.77;1.77;;;;;;;-3.67;88.75;96375.44;5041609;28;20057;-71
2023/12/02 04:34:32;;;;;;;1.65;1.65;;;;;;;-3.59;89.11;96393.81;5026576;28;20045;-70
2023/12/02 04:37:00;;;;;;;1.30;1.30;;;;;;;-3.60;88.43;96393.94;5046110;28;20080;-70
2023/12/02 04:39:29;;;;;;;2.03;1.92;;;;;;;-3.65;89.10;96407.41;5044666;28;20087;-70
2023/12/02 04:41:56;;;;;;;1.65;1.65;;;;;;;-3.62;89.16;96417.53;5044842;28;20045;-70
2023/12/02 04:44:24;;;;;;;1.20;1.20;;;;;;;-3.65;88.52;96424.81;5043732;28;20046;-70
2023/12/02 04:46:51;;;;;;;1.35;1.35;;;;;;;-3.72;88.74;96433.16;5042502;28;20044;-70
2023/12/02 04:49:19;;;;;;;1.77;1.77;;;;;;;-3.71;89.06;96421.78;5043401;28;20051;-70
2023/12/02 04:51:47;;;;;;;1.45;1.45;;;;;;;-3.83;88.67;96422.88;5046452;28;20049;-70
2023/12/02 04:54:14;;;;;;;1.55;1.55;;;;;;;-3.77;89.45;96424.13;5041226;28;20045;-71
2023/12/02 04:56:43;;;;;;;0.80;0.80;;;;;;;-3.74;89.47;96416.84;5046531;28;20440;-70
2023/12/02 04:59:11;;;;;;;1.15;1.15;;;;;;;-3.67;89.47;96411.94;5043803;28;20048;-69
2023/12/02 05:01:38;;;;;;;1.55;1.55;;;;;;;-3.64;88.91;96405.63;5045917;28;20083;-70
2023/12/02 05:04:06;;;;;;;1.38;1.38;;;;;;;-3.65;89.20;96399.59;5045975;28;20041;-70
2023/12/02 05:06:34;;;;;;;1.52;1.52;;;;;;;-3.72;89.05;96399.28;5046502;28;20563;-70
2023/12/02 05:09:03;;;;;;;1.77;1.77;;;;;;;-3.81;88.48;96399.28;5045029;28;20076;-70
2023/12/02 05:11:31;;;;;;;1.58;1.58;;;;;;;-3.76;88.58;96407.53;5043120;28;20124;-70
2023/12/02 05:14:00;;;;;;;1.60;1.60;;;;;;;-3.89;88.87;96409.56;5044072;28;20037;-70
2023/12/02 05:16:27;;;;;;;1.52;1.52;;;;;;;-3.95;88.95;96402.31;5043528;28;20049;-70
2023/12/02 05:18:55;;;;;;;1.23;1.23;;;;;;;-4.00;88.99;96407.09;5041351;28;20059;-69
2023/12/02 05:21:22;;;;;;;1.35;1.35;;;;;;;-3.97;89.47;96407.66;5038939;28;20127;-70
2023/12/02 05:23:50;;;;;;;1.48;1.48;;;;;;;-3.96;88.93;96398.06;5042748;28;20088;-70
2023/12/02 05:26:18;;;;;;;1.60;1.60;;;;;;;-4.02;89.56;96393.34;5036410;28;20049;-70
2023/12/02 05:28:45;;;;;;;1.50;1.50;;;;;;;-3.99;88.97;96387.88;5031999;28;20038;-70
2023/12/02 05:31:14;;;;;;;0.90;0.90;;;;;;;-4.05;89.02;96388.44;5028295;28;20481;-70
2023/12/02 05:33:41;;;;;;;1.17;1.17;;;;;;;-4.10;89.01;96399.25;5029228;28;20049;-70
2023/12/02 05:36:10;;;;;;;1.55;1.55;;;;;;;-4.03;89.34;96400.34;5029452;28;20052;-70
2023/12/02 05:38:38;;;;;;;2.35;2.25;;;;;;;-4.11;88.87;96403.63;5029641;28;20049;-70
2023/12/02 05:41:06;;;;;;;1.33;1.33;;;;;;;-4.01;89.01;96411.47;5027873;28;20414;-70
2023/12/02 05:43:34;;;;;;;1.73;1.63;;;;;;;-3.99;88.54;96406.94;5027778;28;20041;-70
2023/12/02 05:46:02;;;;;;;1.30;1.30;;;;;;;-4.00;88.67;96412.28;5033055;28;20046;-70
2023/12/02 05:48:30;;;;;;;1.42;1.42;;;;;;;-4.05;88.96;96417.91;5038032;28;20052;-70
2023/12/02 05:51:01;;;;;;;1.48;1.48;;;;;;;-3.97;88.94;96432.88;5029072;28;20049;-70
2023/12/02 05:53:28;;;;;;;0.75;0.75;;;;;;;-4.00;89.09;96444.38;5030011;28;20518;-70
2023/12/02 05:55:56;;;;;;;1.52;1.52;;;;;;;-4.02;88.68;96437.66;5028574;28;20046;-70
2023/12/02 05:58:24;;;;;;;1.95;1.88;;;;;;;-4.01;88.61;96441.91;5031731;28;20052;-70
2023/12/02 06:00:52;;;;;;;1.80;1.80;;;;;;;-3.99;88.34;96440.81;5034688;28;20053;-70
2023/12/02 06:03:20;;;;;;;1.55;1.55;;;;;;;-4.11;88.12;96447.09;5036019;28;20116;-70
2023/12/02 06:05:49;;;;;;;1.67;1.67;;;;;;;-4.17;88.57;96452.84;5035564;28;20056;-70
2023/12/02 06:08:16;;;;;;;1.55;1.55;;;;;;;-4.21;88.99;96459.25;5034377;28;20049;-70
2023/12/02 06:10:44;;;;;;;1.42;1.42;;;;;;;-4.18;89.42;96462.44;5041854;28;20040;-70
2023/12/02 06:13:12;;;;;;;1.65;1.55;;;;;;;-4.15;88.93;96469.13;5048610;28;20056;-69
2023/12/02 06:15:39;;;;;;;1.70;1.70;;;;;;;-4.11;89.00;96476.56;5055044;28;20045;-70
2023/12/02 06:18:07;;;;;;;1.75;1.70;;;;;;;-4.01;88.71;96488.78;5055174;28;20048;-71
2023/12/02 06:20:34;;;;;;;1.25;1.25;;;;;;;-4.18;88.07;96493.69;5063252;28;20041;-70
2023/12/02 06:23:03;;;;;;;1.38;1.38;;;;;;;-4.05;88.46;96497.84;5054843;28;20048;-69
2023/12/02 06:25:31;;;;;;;1.40;1.40;;;;;;;-4.00;88.21;96504.28;5050723;28;20405;-70
2023/12/02 06:27:58;;;;;;;1.35;1.35;;;;;;;-3.98;88.22;96497.19;5051598;28;20049;-70
2023/12/02 06:30:26;;;;;;;1.50;1.50;;;;;;;-4.05;87.56;96501.28;5049886;28;20051;-70
2023/12/02 06:32:54;;;;;;;1.75;1.75;;;;;;;-4.01;87.61;96502.66;5049006;28;20486;-70
2023/12/02 06:35:22;;;;;;;1.35;1.35;;;;;;;-4.01;87.70;96494.00;5051869;28;20041;-71
2023/12/02 06:37:49;;;;;;;1.90;1.80;;;;;;;-3.96;87.50;96503.09;5040650;28;20123;-71
2023/12/02 06:40:18;;;;;;;1.80;1.80;;;;;;;-4.11;87.61;96513.03;5038147;28;20086;-71
2023/12/02 06:42:46;;;;;;;1.73;1.73;;;;;;;-4.23;87.30;96505.44;5034833;28;20046;-71
2023/12/02 06:45:14;;;;;;;1.35;1.35;;;;;;;-4.28;87.32;96507.63;5047223;28;20045;-71
2023/12/02 06:47:42;;;;;;;1.55;1.55;;;;;;;-4.34;87.62;96501.13;5049298;28;20068;-71
2023/12/02 06:50:11;;;;;;;1.30;1.30;;;;;;;-4.28;87.86;96500.63;5051495;28;20052;-71
2023/12/02 06:52:38;;;;;;;1.77;1.77;;;;;;;-4.24;88.26;96507.22;5046514;28;20120;-70
2023/12/02 06:55:08;;;;;;;1.45;1.45;;;;;;;-4.17;87.77;96510.97;5047379;28;20033;-71
2023/12/02 06:57:41;;;;;;;0.68;0.68;;;;;;;-4.18;87.31;96517.13;5039238;28;21346;-72
2023/12/02 07:00:10;;;;;;;1.42;1.42;;;;;;;-4.22;87.50;96518.31;5035182;28;20049;-71
2023/12/02 07:02:38;;;;;;;0.95;0.95;;;;;;;-4.23;87.84;96518.47;5034409;28;20426;-71
2023/12/02 07:05:06;;;;;;;1.70;1.70;;;;;;;-4.22;87.38;96523.53;5034587;28;20037;-70
2023/12/02 07:07:34;;;;;;;1.58;1.58;;;;;;;-4.22;87.16;96523.53;5034246;28;20081;-71
2023/12/02 07:10:01;;;;;;;1.58;1.58;;;;;;;-4.22;88.10;96518.31;5015260;28;20049;-71
2023/12/02 07:12:29;;;;;;;1.73;1.73;;;;;;;-4.25;87.79;96515.16;5032387;28;20059;-71
2023/12/02 07:14:58;;;;;;;1.65;1.65;;;;;;;-4.33;87.75;96528.81;5032142;28;20506;-71
2023/12/02 07:17:25;;;;;;;0.65;0.65;;;;;;;-4.29;87.86;96539.81;5030391;28;20467;-71
2023/12/02 07:19:53;;;;;;;1.75;1.75;;;;;;;-4.24;87.66;96540.25;5013461;28;20049;-71
2023/12/02 07:22:21;;;;;;;2.17;2.08;;;;;;;-4.38;87.57;96543.19;5031266;28;20128;-71
2023/12/02 07:24:48;;;;;;;1.40;1.40;;;;;;;-4.36;88.26;96542.09;5030571;28;20220;-71
2023/12/02 07:27:16;;;;;;;1.70;1.70;;;;;;;-4.31;87.71;96546.94;5037650;28;20045;-71
2023/12/02 07:29:44;;;;;;;1.67;1.67;;;;;;;-4.33;87.88;96549.66;5030932;28;20406;-70
2023/12/02 07:32:15;;;;;;;1.50;1.50;;;;;;;-4.43;87.59;96561.78;5031205;28;20487;-71
2023/12/02 07:34:43;;;;;;;1.75;1.75;;;;;;;-4.43;87.90;96561.78;5030556;28;20050;-70
2023/12/02 07:37:10;;;;;;;1.63;1.63;;;;;;;-4.34;88.17;96555.00;5032928;28;20164;-70
2023/12/02 07:39:38;;;;;;;2.00;1.90;;;;;;;-4.30;87.83;96559.81;5033076;28;20052;-71
2023/12/02 07:42:06;;;;;;;1.80;1.80;;;;;;;-4.26;87.53;96568.22;5032277;28;20562;-70
2023/12/02 07:44:33;;;;;;;2.17;2.08;;;;;;;-4.20;87.45;96559.88;5013830;28;20061;-69
2023/12/02 07:47:01;;;;;;;1.52;1.52;;;;;;;-4.30;87.32;96572.00;5032319;28;20045;-70
2023/12/02 07:49:30;;;;;;;2.00;1.90;;;;;;;-4.28;87.31;96568.34;5013628;28;20037;-71
2023/12/02 07:51:58;;;;;;;1.50;1.50;;;;;;;-4.17;87.43;96570.88;5030999;28;20136;-69
2023/12/02 07:54:26;;;;;;;1.83;1.83;;;;;;;-4.17;87.08;96570.88;5029516;28;20517;-70
2023/12/02 07:56:53;;;;;;;1.27;1.27;;;;;;;-4.18;87.55;96579.63;5031698;28;20800;-70
2023/12/02 07:59:21;;;;;;;1.40;1.40;;;;;;;-4.29;86.99;96576.28;5030941;28;20049;-71
2023/12/02 08:01:48;;;;;;;2.17;2.08;;;;;;;-4.10;86.92;96573.75;5031127;28;20537;-70
2023/12/02 08:04:16;;;;;;;1.55;1.55;;;;;;;-4.09;86.88;96571.03;5030632;28;20037;-71
2023/12/02 08:06:45;;;;;;;1.20;1.20;;;;;;;-4.02;86.62;96578.31;5032675;28;20088;-71
2023/12/02 08:09:14;;;;;;;1.67;1.67;;;;;;;-4.08;86.46;96571.88;5031477;28;20073;-71
2023/12/02 08:11:42;;;;;;;2.28;2.17;;;;;;;-4.02;86.75;96567.91;5028929;28;20052;-71
2023/12/02 08:14:10;;;;;;;1.58;1.58;;;;;;;-4.04;86.21;96562.81;5030584;28;20049;-70
2023/12/02 08:16:37;;;;;;;1.55;1.55;;;;;;;-3.98;86.22;96556.28;5029688;28;20107;-70
2023/12/02 08:19:05;;;;;;;1.67;1.67;;;;;;;-4.10;85.70;96553.75;5030532;28;20457;-71
2023/12/02 08:21:33;;;;;;;1.50;1.50;;;;;;;-4.26;86.78;96565.59;5028999;28;20513;-70
2023/12/02 08:24:02;;;;;;;1.40;1.40;;;;;;;-4.18;86.71;96566.59;5033103;28;20060;-71
2023/12/02 08:26:29;;;;;;;1.45;1.45;;;;;;;-4.24;86.53;96572.31;5030281;28;20042;-71
2023/12/02 08:28:57;;;;;;;1.58;1.58;;;;;;;-4.11;86.92;96575.53;5031966;28;20041;-71
2023/12/02 08:31:25;;;;;;;1.42;1.42;;;;;;;-4.04;86.69;96583.66;5032427;28;20045;-71
2023/12/02 08:33:53;;;;;;;1.70;1.70;;;;;;;-3.97;86.52;96583.97;5031404;28;20037;-70
2023/12/02 08:36:21;;;;;;;1.33;1.33;;;;;;;-3.93;85.76;96588.78;5031249;28;20491;-71
2023/12/02 08:38:48;;;;;;;1.40;1.40;;;;;;;-3.92;85.96;96590.44;5029827;28;20045;-70
2023/12/02 08:41:17;;;;;;;1.23;1.23;;;;;;;-3.83;85.93;96599.25;5030492;28;20045;-71
2023/12/02 08:43:45;;;;;;;1.45;1.45;;;;;;;-3.85;85.43;96596.78;5030939;28;20061;-71
2023/12/02 08:46:14;;;;;;;1.58;1.58;;;;;;;-3.82;85.20;96601.72;5030803;28;20136;-71
2023/12/02 08:48:41;;;;;;;1.42;1.42;;;;;;;-3.88;84.85;96604.03;5030195;28;20402;-71
2023/12/02 08:51:09;;;;;;;1.45;1.45;;;;;;;-3.92;85.11;96619.09;5030079;28;20092;-71
2023/12/02 08:53:37;;;;;;;1.35;1.35;;;;;;;-4.01;84.73;96629.47;5036917;28;20529;-71
2023/12/02 08:56:06;;;;;;;1.70;1.70;;;;;;;-4.01;85.57;96629.47;5043082;28;20072;-70
2023/12/02 08:58:35;;;;;;;1.48;1.48;;;;;;;-3.96;85.67;96635.97;5042717;28;20055;-73
2023/12/02 09:01:03;;;;;;;1.63;1.63;;;;;;;-3.98;85.07;96637.03;5036878;28;20049;-71
2023/12/02 09:03:30;;;;;;;1.52;1.52;;;;;;;-3.92;85.60;96647.75;5030577;28;20046;-73
2023/12/02 09:05:58;;;;;;;2.35;2.25;;;;;;;-4.06;85.28;96645.50;5029744;28;20053;-72
2023/12/02 09:08:26;;;;;;;1.50;1.50;;;;;;;-4.04;85.11;96651.38;5029694;28;20046;-71
2023/12/02 09:10:53;;;;;;;0.75;0.75;;;;;;;-4.01;85.61;96652.91;5030743;28;20417;-71
2023/12/02 09:13:53;;;;;;;1.70;1.70;;;;;;;-4.01;85.43;96652.91;5029630;28;20091;-70
2023/12/02 09:16:21;;;;;;;1.35;1.35;;;;;;;-4.07;85.05;96654.28;4969370;28;20056;-71
2023/12/02 09:18:49;;;;;;;1.50;1.50;;;;;;;-4.09;84.71;96661.38;5016606;28;20049;-72
2023/12/02 09:21:41;;;;;;;1.42;1.42;;;;;;;-4.09;85.16;96661.38;5029433;28;20041;-72
2023/12/02 09:24:34;;;;;;;1.52;1.52;;;;;;;-4.05;84.68;96654.97;5032040;28;20049;-71
2023/12/02 09:27:05;;;;;;;1.52;1.52;;;;;;;-4.02;84.92;96654.69;5029048;28;20037;-73
2023/12/02 09:29:37;;;;;;;1.40;1.40;;;;;;;-4.01;84.82;96653.75;5031367;28;20132;-71
2023/12/02 09:32:10;;;;;;;1.60;1.60;;;;;;;-3.91;84.78;96656.41;5011851;28;20056;-72
2023/12/02 09:34:56;;;;;;;1.45;1.45;;;;;;;-3.88;84.43;96658.75;5028252;28;20068;-72
2023/12/02 09:37:47;;;;;;;1.95;1.95;;;;;;;-3.96;84.51;96655.97;5029321;28;20403;-72
2023/12/02 09:40:37;;;;;;;0.70;0.70;;;;;;;-4.11;85.54;96650.25;5010962;28;20479;-72
2023/12/02 09:43:30;;;;;;;1.27;1.27;;;;;;;-3.94;85.09;96648.84;5029469;28;20549;-72
2023/12/02 09:46:20;;;;;;;0.50;0.50;;;;;;;-3.84;85.07;96650.53;5027380;28;20457;-69
2023/12/02 09:48:56;;;;;;;0.70;0.70;;;;;;;-3.89;84.08;96647.50;5027461;28;20409;-69
2023/12/02 09:51:36;;;;;;;1.55;1.55;;;;;;;-3.85;84.06;96651.53;5011584;28;20052;-69
2023/12/02 09:54:08;;;;;;;2.17;2.08;;;;;;;-3.87;84.17;96650.00;5028861;28;20045;-71
2023/12/02 09:56:40;;;;;;;1.30;1.30;;;;;;;-3.95;84.26;96642.00;5029843;28;20310;-70
2023/12/02 09:59:15;;;;;;;1.38;1.38;;;;;;;-4.01;84.31;96645.94;5011899;28;20096;-70
2023/12/02 10:01:48;;;;;;;1.40;1.40;;;;;;;-4.09;84.32;96646.56;5031360;28;20056;-70
2023/12/02 10:04:25;;;;;;;0.82;0.82;;;;;;;-4.13;84.66;96652.97;5029292;28;20536;-70
2023/12/02 10:06:59;;;;;;;1.48;1.48;;;;;;;-4.16;84.88;96658.47;5029855;28;20065;-72
2023/12/02 10:09:40;;;;;;;1.65;1.65;;;;;;;-4.06;84.45;96650.72;5028269;28;20046;-73
2023/12/02 10:12:17;;;;;;;1.50;1.45;;;;;;;-4.00;84.43;96657.19;5028934;28;20060;-70
2023/12/02 10:14:46;;;;;;;1.70;1.70;;;;;;;-3.94;85.00;96651.44;5028976;28;20673;-70
2023/12/02 10:17:16;;;;;;;1.33;1.33;;;;;;;-3.86;84.50;96643.81;5012246;28;20084;-71
2023/12/02 10:19:51;;;;;;;0.65;0.65;;;;;;;-3.78;84.25;96641.41;5027580;28;20206;-70
2023/12/02 10:22:21;;;;;;;1.35;1.35;;;;;;;-3.81;83.44;96636.44;5029362;28;20095;-71
2023/12/02 10:24:54;;;;;;;1.55;1.55;;;;;;;-3.95;84.28;96628.97;5028835;28;20069;-70
2023/12/02 10:27:22;;;;;;;1.50;1.50;;;;;;;-3.88;84.27;96630.09;5028745;28;20040;-70
2023/12/02 10:29:57;;;;;;;1.65;1.65;;;;;;;-3.97;84.18;96629.09;5031852;28;20045;-70
2023/12/02 10:32:31;;;;;;;1.10;1.10;;;;;;;-3.89;84.47;96634.47;5048254;28;20124;-74
2023/12/02 10:35:04;;;;;;;1.25;1.25;;;;;;;-3.86;84.40;96639.44;5048059;28;20049;-70
2023/12/02 10:37:36;;;;;;;1.38;1.38;;;;;;;-3.80;84.21;96638.09;5043450;28;20494;-70
2023/12/02 10:40:07;;;;;;;;;;;;;;;-3.81;84.07;96636.44;5043966;28;20164;-70
2023/12/02 10:42:41;;;;;;;0.52;0.52;;;;;;;-3.74;84.72;96637.59;5039392;28;20408;-70
2023/12/02 10:45:09;;;;;;;1.60;1.60;;;;;;;-3.63;84.47;96645.28;5042021;28;20390;-73
2023/12/02 10:47:39;;;;;;;1.52;1.52;;;;;;;-3.61;83.92;96645.16;5042411;28;20045;-70
2023/12/02 10:50:07;;;;;;;2.10;2.03;;;;;;;-3.61;83.99;96642.56;5045908;28;20037;-70
2023/12/02 10:52:36;;;;;;;0.95;0.95;;;;;;;-3.58;83.69;96639.69;5044391;28;20181;-70
2023/12/02 10:55:08;;;;;;;1.63;1.63;;;;;;;-3.72;83.71;96633.03;5045211;28;20045;-74
2023/12/02 10:57:35;;;;;;;1.40;1.40;;;;;;;-3.83;84.04;96633.13;5043872;28;20047;-71
2023/12/02 11:00:07;;;;;;;1.65;1.65;;;;;;;-3.81;84.33;96642.47;5048249;28;20045;-70
2023/12/02 11:02:41;;;;;;;1.40;1.40;;;;;;;-3.79;84.47;96635.34;5043757;28;20044;-70
2023/12/02 11:05:17;;;;;;;1.65;1.65;;;;;;;-3.71;84.99;96638.13;5046807;28;20128;-71
2023/12/02 11:07:49;;;;;;;1.35;1.35;;;;;;;-3.72;84.46;96636.47;5045866;28;20072;-70
2023/12/02 11:10:19;;;;;;;1.50;1.50;;;;;;;-3.79;84.76;96642.34;5047685;28;20137;-70
2023/12/02 11:12:51;;;;;;;1.40;1.40;;;;;;;-3.68;84.38;96657.91;5043807;28;20495;-74
2023/12/02 11:15:23;;;;;;;0.60;0.60;;;;;;;-3.60;84.91;96650.25;5045732;28;20429;-71
2023/12/02 11:18:00;;;;;;;1.40;1.40;;;;;;;-3.54;84.54;96648.91;5044105;28;20168;-74
2023/12/02 11:20:37;;;;;;;1.13;1.13;;;;;;;-3.58;84.17;96653.56;5044528;28;20049;-71
2023/12/02 11:23:15;;;;;;;1.23;1.23;;;;;;;-3.67;84.64;96651.75;5044986;28;20579;-71
2023/12/02 11:25:56;;;;;;;1.50;1.50;;;;;;;-3.67;84.27;96654.34;5044945;28;20139;-72
2023/12/02 11:28:30;;;;;;;1.83;1.83;;;;;;;-3.59;84.72;96651.91;5044517;28;20037;-72
2023/12/02 11:31:10;;;;;;;1.70;1.70;;;;;;;-3.56;84.34;96662.06;5046692;28;20036;-71
2023/12/02 11:33:51;;;;;;;2.15;2.08;;;;;;;-3.68;84.58;96663.13;5043986;28;20041;-72
2023/12/02 11:36:23;;;;;;;1.45;1.45;;;;;;;-3.58;85.28;96678.78;5026200;28;20053;-72
2023/12/02 11:39:03;;;;;;;1.50;1.50;;;;;;;-3.48;85.01;96679.66;5028159;28;20057;-71
2023/12/02 11:41:40;;;;;;;1.80;1.75;;;;;;;-3.49;84.60;96684.06;5044709;28;20072;-71
2023/12/02 11:44:14;;;;;;;1.10;1.10;;;;;;;-3.63;83.67;96694.81;5045291;28;20053;-71